Aviation Digital Data Service (ADDS)

Output produced by METARs form (1223 UTC 19 November 2017)
found at http://aviationweather.gov/adds/metars/
 
KHOU 191153Z 01010KT 10SM FEW250 10/02 A3026 RMK AO2 SLP251 T01000022 10144 20100 51014